sensor_id;sensor_type;location;lat;lon;timestamp;pressure;altitude;pressure_sealevel;temperature;humidity
23339;BME280;11841;49.368;20.962;2022-08-19T00:01:51;95522.41;;;19.04;88.13
23339;BME280;11841;49.368;20.962;2022-08-19T00:04:26;95524.03;;;19.00;88.25
23339;BME280;11841;49.368;20.962;2022-08-19T00:06:53;95532.09;;;19.00;88.26
23339;BME280;11841;49.368;20.962;2022-08-19T00:09:21;95528.88;;;18.98;88.51
23339;BME280;11841;49.368;20.962;2022-08-19T00:11:49;95525.09;;;18.99;88.51
23339;BME280;11841;49.368;20.962;2022-08-19T00:14:16;95522.16;;;19.00;88.46
23339;BME280;11841;49.368;20.962;2022-08-19T00:16:45;95523.50;;;18.98;88.36
23339;BME280;11841;49.368;20.962;2022-08-19T00:19:13;95519.22;;;18.92;88.87
23339;BME280;11841;49.368;20.962;2022-08-19T00:21:40;95518.16;;;18.88;89.24
23339;BME280;11841;49.368;20.962;2022-08-19T00:24:09;95518.16;;;18.88;89.09
23339;BME280;11841;49.368;20.962;2022-08-19T00:26:36;95514.41;;;18.84;88.88
23339;BME280;11841;49.368;20.962;2022-08-19T00:29:05;95513.63;;;18.78;89.17
23339;BME280;11841;49.368;20.962;2022-08-19T00:31:32;95512.56;;;18.74;89.11
23339;BME280;11841;49.368;20.962;2022-08-19T00:33:58;95509.59;;;18.76;88.89
23339;BME280;11841;49.368;20.962;2022-08-19T00:36:25;95512.28;;;18.76;88.88
23339;BME280;11841;49.368;20.962;2022-08-19T00:38:52;95510.13;;;18.73;88.57
23339;BME280;11841;49.368;20.962;2022-08-19T00:41:20;95509.88;;;18.69;88.51
23339;BME280;11841;49.368;20.962;2022-08-19T00:44:02;95502.88;;;18.63;89.26
23339;BME280;11841;49.368;20.962;2022-08-19T00:46:29;95505.59;;;18.58;89.71
23339;BME280;11841;49.368;20.962;2022-08-19T00:48:57;95502.41;;;18.56;89.66
23339;BME280;11841;49.368;20.962;2022-08-19T00:51:29;95513.66;;;18.53;89.63
23339;BME280;11841;49.368;20.962;2022-08-19T00:53:57;95511.50;;;18.50;90.15
23339;BME280;11841;49.368;20.962;2022-08-19T00:56:25;95514.75;;;18.52;90.38
23339;BME280;11841;49.368;20.962;2022-08-19T00:58:55;95513.66;;;18.53;90.56
23339;BME280;11841;49.368;20.962;2022-08-19T01:01:22;95512.03;;;18.57;90.51
23339;BME280;11841;49.368;20.962;2022-08-19T01:03:49;95518.50;;;18.61;90.01
23339;BME280;11841;49.368;20.962;2022-08-19T01:06:23;95519.81;;;18.59;89.42
23339;BME280;11841;49.368;20.962;2022-08-19T01:08:50;95530.84;;;18.52;89.60
23339;BME280;11841;49.368;20.962;2022-08-19T01:11:17;95531.91;;;18.46;89.39
23339;BME280;11841;49.368;20.962;2022-08-19T01:13:44;95540.22;;;18.45;89.16
23339;BME280;11841;49.368;20.962;2022-08-19T01:16:16;95536.22;;;18.42;88.90
23339;BME280;11841;49.368;20.962;2022-08-19T01:18:44;95538.38;;;18.40;88.79
23339;BME280;11841;49.368;20.962;2022-08-19T01:21:34;95529.75;;;18.33;88.94
23339;BME280;11841;49.368;20.962;2022-08-19T01:24:04;95527.34;;;18.27;89.44
23339;BME280;11841;49.368;20.962;2022-08-19T01:26:31;95520.09;;;18.22;89.49
23339;BME280;11841;49.368;20.962;2022-08-19T01:28:58;95516.06;;;18.20;89.40
23339;BME280;11841;49.368;20.962;2022-08-19T01:31:30;95519.03;;;18.18;89.69
23339;BME280;11841;49.368;20.962;2022-08-19T01:33:59;95508.28;;;18.18;89.53
23339;BME280;11841;49.368;20.962;2022-08-19T01:36:47;95503.47;;;18.15;89.04
23339;BME280;11841;49.368;20.962;2022-08-19T01:39:18;95510.44;;;18.16;89.05
23339;BME280;11841;49.368;20.962;2022-08-19T01:41:46;95506.97;;;18.16;88.83
23339;BME280;11841;49.368;20.962;2022-08-19T01:44:13;95516.06;;;18.15;88.79
23339;BME280;11841;49.368;20.962;2022-08-19T01:46:45;95505.06;;;18.11;88.78
23339;BME280;11841;49.368;20.962;2022-08-19T01:49:14;95509.88;;;18.04;89.24
23339;BME280;11841;49.368;20.962;2022-08-19T01:51:41;95505.88;;;17.96;89.27
23339;BME280;11841;49.368;20.962;2022-08-19T01:54:09;95504.78;;;17.92;89.43
23339;BME280;11841;49.368;20.962;2022-08-19T01:56:36;95497.56;;;17.88;89.74
23339;BME280;11841;49.368;20.962;2022-08-19T01:59:05;95501.28;;;17.87;89.54
23339;BME280;11841;49.368;20.962;2022-08-19T02:01:34;95502.63;;;17.84;89.82
23339;BME280;11841;49.368;20.962;2022-08-19T02:04:01;95497.28;;;17.84;89.64
23339;BME280;11841;49.368;20.962;2022-08-19T02:06:28;95495.13;;;17.81;89.83
23339;BME280;11841;49.368;20.962;2022-08-19T02:08:55;95495.66;;;17.78;89.97
23339;BME280;11841;49.368;20.962;2022-08-19T02:11:28;95494.31;;;17.81;89.98
23339;BME280;11841;49.368;20.962;2022-08-19T02:13:59;95481.44;;;17.78;89.84
23339;BME280;11841;49.368;20.962;2022-08-19T02:16:26;95487.31;;;17.75;90.01
23339;BME280;11841;49.368;20.962;2022-08-19T02:18:52;95481.97;;;17.75;89.76
23339;BME280;11841;49.368;20.962;2022-08-19T02:21:21;95473.13;;;17.74;89.82
23339;BME280;11841;49.368;20.962;2022-08-19T02:23:49;95477.69;;;17.69;89.98
23339;BME280;11841;49.368;20.962;2022-08-19T02:26:16;95489.22;;;17.69;90.19
23339;BME280;11841;49.368;20.962;2022-08-19T02:28:43;95484.38;;;17.66;90.36
23339;BME280;11841;49.368;20.962;2022-08-19T02:31:11;95478.75;;;17.63;90.46
23339;BME280;11841;49.368;20.962;2022-08-19T02:33:38;95483.00;;;17.54;90.86
23339;BME280;11841;49.368;20.962;2022-08-19T02:36:06;95491.59;;;17.51;90.79
23339;BME280;11841;49.368;20.962;2022-08-19T02:38:34;95483.56;;;17.51;90.83
23339;BME280;11841;49.368;20.962;2022-08-19T02:41:03;95496.97;;;17.51;90.50
23339;BME280;11841;49.368;20.962;2022-08-19T02:43:31;95502.31;;;17.46;90.92
23339;BME280;11841;49.368;20.962;2022-08-19T02:46:00;95497.41;;;17.43;91.04
23339;BME280;11841;49.368;20.962;2022-08-19T02:48:27;95486.69;;;17.43;90.79
23339;BME280;11841;49.368;20.962;2022-08-19T02:50:53;95489.38;;;17.43;91.21
23339;BME280;11841;49.368;20.962;2022-08-19T02:53:23;95490.44;;;17.37;91.08
23339;BME280;11841;49.368;20.962;2022-08-19T02:55:51;95491.53;;;17.36;91.13
23339;BME280;11841;49.368;20.962;2022-08-19T02:58:18;95501.97;;;17.37;91.67
23339;BME280;11841;49.368;20.962;2022-08-19T03:00:47;95501.97;;;17.37;91.67
23339;BME280;11841;49.368;20.962;2022-08-19T03:03:16;95497.13;;;17.34;91.78
23339;BME280;11841;49.368;20.962;2022-08-19T03:05:43;95504.91;;;17.31;91.33
23339;BME280;11841;49.368;20.962;2022-08-19T03:08:22;95497.66;;;17.26;91.57
23339;BME280;11841;49.368;20.962;2022-08-19T03:10:48;95497.94;;;17.30;91.29
23339;BME280;11841;49.368;20.962;2022-08-19T03:13:17;95494.19;;;17.31;90.99
23339;BME280;11841;49.368;20.962;2022-08-19T03:15:45;95497.38;;;17.28;90.75
23339;BME280;11841;49.368;20.962;2022-08-19T03:18:14;95499.25;;;17.22;90.85
23339;BME280;11841;49.368;20.962;2022-08-19T03:20:48;95503.22;;;17.15;91.13
23339;BME280;11841;49.368;20.962;2022-08-19T03:23:16;95499.47;;;17.11;91.43
23339;BME280;11841;49.368;20.962;2022-08-19T03:25:46;95507.50;;;17.11;91.33
23339;BME280;11841;49.368;20.962;2022-08-19T03:28:34;95511.25;;;17.10;91.65
23339;BME280;11841;49.368;20.962;2022-08-19T03:31:05;95518.19;;;17.11;91.65
23339;BME280;11841;49.368;20.962;2022-08-19T03:33:52;95509.63;;;17.04;92.63
23339;BME280;11841;49.368;20.962;2022-08-19T03:36:24;95516.03;;;17.03;92.98
23339;BME280;11841;49.368;20.962;2022-08-19T03:38:58;95523.03;;;17.04;92.71
23339;BME280;11841;49.368;20.962;2022-08-19T03:41:29;95524.06;;;17.03;92.54
23339;BME280;11841;49.368;20.962;2022-08-19T03:44:21;95539.03;;;16.99;92.48
23339;BME280;11841;49.368;20.962;2022-08-19T03:46:52;95530.50;;;17.02;92.52
23339;BME280;11841;49.368;20.962;2022-08-19T03:49:20;95534.53;;;17.04;92.14
23339;BME280;11841;49.368;20.962;2022-08-19T03:51:56;95533.75;;;17.09;91.76
23339;BME280;11841;49.368;20.962;2022-08-19T03:54:24;95544.22;;;17.10;91.71
23339;BME280;11841;49.368;20.962;2022-08-19T03:56:53;95550.63;;;17.09;91.50
23339;BME280;11841;49.368;20.962;2022-08-19T03:59:22;95551.13;;;17.06;91.43
23339;BME280;11841;49.368;20.962;2022-08-19T04:01:53;95557.59;;;17.10;91.04
23339;BME280;11841;49.368;20.962;2022-08-19T04:04:20;95553.00;;;17.06;91.21
23339;BME280;11841;49.368;20.962;2022-08-19T04:06:47;95550.59;;;17.04;91.24
23339;BME280;11841;49.368;20.962;2022-08-19T04:09:15;95549.28;;;17.07;91.28
23339;BME280;11841;49.368;20.962;2022-08-19T04:11:46;95551.41;;;17.05;91.51
23339;BME280;11841;49.368;20.962;2022-08-19T04:14:18;95551.94;;;17.02;91.97
23339;BME280;11841;49.368;20.962;2022-08-19T04:16:46;95549.81;;;17.04;92.29
23339;BME280;11841;49.368;20.962;2022-08-19T04:19:14;95544.69;;;17.07;92.27
23339;BME280;11841;49.368;20.962;2022-08-19T04:21:43;95552.22;;;17.05;92.48
23339;BME280;11841;49.368;20.962;2022-08-19T04:24:11;95558.88;;;17.03;92.83
23339;BME280;11841;49.368;20.962;2022-08-19T04:26:38;95549.53;;;17.05;93.53
23339;BME280;11841;49.368;20.962;2022-08-19T04:29:12;95551.13;;;17.06;94.44
23339;BME280;11841;49.368;20.962;2022-08-19T04:31:40;95546.88;;;17.10;94.08
23339;BME280;11841;49.368;20.962;2022-08-19T04:34:09;95548.78;;;17.15;93.92
23339;BME280;11841;49.368;20.962;2022-08-19T04:36:38;95552.53;;;17.14;94.23
23339;BME280;11841;49.368;20.962;2022-08-19T04:39:09;95562.16;;;17.15;94.22
23339;BME280;11841;49.368;20.962;2022-08-19T04:41:36;95546.66;;;17.17;95.18
23339;BME280;11841;49.368;20.962;2022-08-19T04:44:22;95542.34;;;17.21;95.78
23339;BME280;11841;49.368;20.962;2022-08-19T04:46:49;95550.94;;;17.23;96.07
23339;BME280;11841;49.368;20.962;2022-08-19T04:49:19;95549.91;;;17.29;96.07
23339;BME280;11841;49.368;20.962;2022-08-19T04:51:49;95546.69;;;17.32;96.86
23339;BME280;11841;49.368;20.962;2022-08-19T04:54:17;95542.44;;;17.36;96.83
23339;BME280;11841;49.368;20.962;2022-08-19T04:57:08;95530.66;;;17.42;96.96
23339;BME280;11841;49.368;20.962;2022-08-19T04:59:38;95535.25;;;17.46;96.76
23339;BME280;11841;49.368;20.962;2022-08-19T05:02:07;95531.25;;;17.49;97.17
23339;BME280;11841;49.368;20.962;2022-08-19T05:04:34;95533.41;;;17.52;97.55
23339;BME280;11841;49.368;20.962;2022-08-19T05:07:01;95532.59;;;17.56;98.09
23339;BME280;11841;49.368;20.962;2022-08-19T05:09:29;95536.09;;;17.62;97.81
23339;BME280;11841;49.368;20.962;2022-08-19T05:12:17;95524.06;;;17.64;97.98
23339;BME280;11841;49.368;20.962;2022-08-19T05:14:44;95522.16;;;17.70;98.27
23339;BME280;11841;49.368;20.962;2022-08-19T05:17:11;95523.25;;;17.74;98.23
23339;BME280;11841;49.368;20.962;2022-08-19T05:19:54;95516.84;;;17.80;98.23
23339;BME280;11841;49.368;20.962;2022-08-19T05:22:39;95517.09;;;17.83;98.54
23339;BME280;11841;49.368;20.962;2022-08-19T05:25:09;95513.63;;;17.88;99.45
23339;BME280;11841;49.368;20.962;2022-08-19T05:27:40;95517.94;;;17.94;99.68
23339;BME280;11841;49.368;20.962;2022-08-19T05:30:09;95510.69;;;17.99;99.60
23339;BME280;11841;49.368;20.962;2022-08-19T05:32:36;95513.38;;;18.04;99.84
23339;BME280;11841;49.368;20.962;2022-08-19T05:35:04;95507.75;;;18.11;99.76
23339;BME280;11841;49.368;20.962;2022-08-19T05:37:31;95508.84;;;18.15;99.85
23339;BME280;11841;49.368;20.962;2022-08-19T05:39:57;95492.72;;;18.20;99.88
23339;BME280;11841;49.368;20.962;2022-08-19T05:42:24;95510.41;;;18.26;99.91
23339;BME280;11841;49.368;20.962;2022-08-19T05:44:52;95508.53;;;18.32;99.88
23339;BME280;11841;49.368;20.962;2022-08-19T05:47:20;95512.59;;;18.39;100.00
23339;BME280;11841;49.368;20.962;2022-08-19T05:49:47;95519.56;;;18.45;100.00
23339;BME280;11841;49.368;20.962;2022-08-19T05:52:15;95521.97;;;18.52;100.00
23339;BME280;11841;49.368;20.962;2022-08-19T05:54:45;95521.19;;;18.56;100.00
23339;BME280;11841;49.368;20.962;2022-08-19T05:57:18;95521.19;;;18.61;100.00
23339;BME280;11841;49.368;20.962;2022-08-19T05:59:45;95523.31;;;18.64;100.00
23339;BME280;11841;49.368;20.962;2022-08-19T06:02:24;95525.44;;;18.72;100.00
23339;BME280;11841;49.368;20.962;2022-08-19T06:04:51;95530.81;;;18.77;100.00
23339;BME280;11841;49.368;20.962;2022-08-19T06:07:18;95531.31;;;18.84;100.00
23339;BME280;11841;49.368;20.962;2022-08-19T06:09:46;95535.06;;;18.93;100.00
23339;BME280;11841;49.368;20.962;2022-08-19T06:12:27;95543.09;;;19.03;100.00
23339;BME280;11841;49.368;20.962;2022-08-19T06:14:58;95548.47;;;19.08;100.00
23339;BME280;11841;49.368;20.962;2022-08-19T06:17:27;95540.91;;;19.15;100.00
23339;BME280;11841;49.368;20.962;2022-08-19T06:19:56;95533.88;;;19.24;100.00
23339;BME280;11841;49.368;20.962;2022-08-19T06:22:22;95537.38;;;19.35;100.00
23339;BME280;11841;49.368;20.962;2022-08-19T06:24:49;95545.94;;;19.47;100.00
23339;BME280;11841;49.368;20.962;2022-08-19T06:27:19;95551.81;;;19.54;100.00
23339;BME280;11841;49.368;20.962;2022-08-19T06:29:46;95550.94;;;19.64;100.00
23339;BME280;11841;49.368;20.962;2022-08-19T06:32:15;95547.16;;;19.70;100.00
23339;BME280;11841;49.368;20.962;2022-08-19T06:34:42;95550.59;;;19.75;100.00
23339;BME280;11841;49.368;20.962;2022-08-19T06:37:10;95554.63;;;19.83;100.00
23339;BME280;11841;49.368;20.962;2022-08-19T06:39:39;95553.75;;;19.92;100.00
23339;BME280;11841;49.368;20.962;2022-08-19T06:42:06;95553.97;;;20.01;100.00
23339;BME280;11841;49.368;20.962;2022-08-19T06:44:38;95546.88;;;20.15;99.47
23339;BME280;11841;49.368;20.962;2022-08-19T06:47:12;95545.75;;;20.26;98.64
23339;BME280;11841;49.368;20.962;2022-08-19T06:49:48;95543.00;;;20.36;98.45
23339;BME280;11841;49.368;20.962;2022-08-19T06:52:15;95551.25;;;20.45;98.07
23339;BME280;11841;49.368;20.962;2022-08-19T06:54:42;95544.97;;;20.54;97.28
23339;BME280;11841;49.368;20.962;2022-08-19T06:57:23;95539.50;;;20.64;96.49
23339;BME280;11841;49.368;20.962;2022-08-19T06:59:50;95540.56;;;20.68;96.67
23339;BME280;11841;49.368;20.962;2022-08-19T07:02:17;95532.38;;;20.78;97.14
23339;BME280;11841;49.368;20.962;2022-08-19T07:04:44;95530.38;;;20.89;96.24
23339;BME280;11841;49.368;20.962;2022-08-19T07:07:13;95531.63;;;21.01;95.51
23339;BME280;11841;49.368;20.962;2022-08-19T07:09:47;95544.38;;;21.19;94.56
23339;BME280;11841;49.368;20.962;2022-08-19T07:12:28;95535.59;;;21.32;93.85
23339;BME280;11841;49.368;20.962;2022-08-19T07:14:56;95538.97;;;21.43;93.18
23339;BME280;11841;49.368;20.962;2022-08-19T07:17:24;95538.84;;;21.53;92.81
23339;BME280;11841;49.368;20.962;2022-08-19T07:19:51;95541.03;;;21.70;91.54
23339;BME280;11841;49.368;20.962;2022-08-19T07:22:20;95533.28;;;21.87;91.42
23339;BME280;11841;49.368;20.962;2022-08-19T07:24:50;95534.50;;;21.94;90.65
23339;BME280;11841;49.368;20.962;2022-08-19T07:27:18;95526.78;;;22.06;89.41
23339;BME280;11841;49.368;20.962;2022-08-19T07:29:53;95528.84;;;22.14;89.12
23339;BME280;11841;49.368;20.962;2022-08-19T07:32:23;95526.69;;;22.30;87.84
23339;BME280;11841;49.368;20.962;2022-08-19T07:34:52;95534.63;;;22.40;87.01
23339;BME280;11841;49.368;20.962;2022-08-19T07:37:19;95530.53;;;22.42;87.45
23339;BME280;11841;49.368;20.962;2022-08-19T07:39:45;95535.50;;;22.54;86.80
23339;BME280;11841;49.368;20.962;2022-08-19T07:42:12;95540.22;;;22.62;86.43
23339;BME280;11841;49.368;20.962;2022-08-19T07:44:40;95529.38;;;22.67;86.02
23339;BME280;11841;49.368;20.962;2022-08-19T07:47:07;95532.38;;;22.79;84.87
23339;BME280;11841;49.368;20.962;2022-08-19T07:49:54;95531.09;;;22.90;83.77
23339;BME280;11841;49.368;20.962;2022-08-19T07:52:20;95529.22;;;23.04;82.46
23339;BME280;11841;49.368;20.962;2022-08-19T08:05:49;95536.94;;;23.78;79.50
23339;BME280;11841;49.368;20.962;2022-08-19T08:08:34;95545.56;;;24.08;77.21
23339;BME280;11841;49.368;20.962;2022-08-19T08:11:20;95543.09;;;24.20;76.20
23339;BME280;11841;49.368;20.962;2022-08-19T08:13:49;95540.63;;;24.32;75.55
23339;BME280;11841;49.368;20.962;2022-08-19T08:16:29;95543.59;;;24.44;74.81
23339;BME280;11841;49.368;20.962;2022-08-19T08:18:57;95533.88;;;24.65;74.38
23339;BME280;11841;49.368;20.962;2022-08-19T08:21:24;95531.44;;;24.77;73.88
23339;BME280;11841;49.368;20.962;2022-08-19T08:23:51;95527.16;;;24.84;74.85
23339;BME280;11841;49.368;20.962;2022-08-19T08:26:22;95521.44;;;24.86;74.09
23339;BME280;11841;49.368;20.962;2022-08-19T08:28:49;95526.28;;;24.97;72.61
23339;BME280;11841;49.368;20.962;2022-08-19T08:31:17;95527.50;;;25.22;69.25
23339;BME280;11841;49.368;20.962;2022-08-19T08:33:46;95532.13;;;25.52;67.10
23339;BME280;11841;49.368;20.962;2022-08-19T08:36:13;95530.25;;;25.61;66.92
23339;BME280;11841;49.368;20.962;2022-08-19T08:38:41;95533.13;;;25.65;66.32
23339;BME280;11841;49.368;20.962;2022-08-19T08:43:49;95530.13;;;25.83;65.46
23339;BME280;11841;49.368;20.962;2022-08-19T08:46:34;95523.59;;;25.93;63.65
23339;BME280;11841;49.368;20.962;2022-08-19T08:51:59;95514.06;;;26.30;63.09
23339;BME280;11841;49.368;20.962;2022-08-19T08:54:37;95521.41;;;26.38;62.37
23339;BME280;11841;49.368;20.962;2022-08-19T08:57:12;95511.81;;;26.49;61.10
23339;BME280;11841;49.368;20.962;2022-08-19T08:59:43;95509.41;;;26.56;61.56
23339;BME280;11841;49.368;20.962;2022-08-19T09:02:12;95507.78;;;26.63;61.98
23339;BME280;11841;49.368;20.962;2022-08-19T09:04:39;95502.84;;;26.57;61.20
23339;BME280;11841;49.368;20.962;2022-08-19T09:10:26;95508.28;;;26.74;63.19
23339;BME280;11841;49.368;20.962;2022-08-19T09:13:10;95512.91;;;26.82;61.27
23339;BME280;11841;49.368;20.962;2022-08-19T09:15:46;95506.97;;;26.88;62.31
23339;BME280;11841;49.368;20.962;2022-08-19T09:18:15;95505.38;;;26.96;61.51
23339;BME280;11841;49.368;20.962;2022-08-19T09:20:45;95498.31;;;26.95;62.19
23339;BME280;11841;49.368;20.962;2022-08-19T09:23:15;95498.44;;;27.07;60.47
23339;BME280;11841;49.368;20.962;2022-08-19T09:25:42;95501.31;;;27.10;60.92
23339;BME280;11841;49.368;20.962;2022-08-19T09:28:10;95502.72;;;27.25;60.71
23339;BME280;11841;49.368;20.962;2022-08-19T09:30:48;95501.41;;;27.31;59.03
23339;BME280;11841;49.368;20.962;2022-08-19T09:33:14;95499.47;;;27.40;58.74
23339;BME280;11841;49.368;20.962;2022-08-19T09:35:41;95504.88;;;27.49;59.07
23339;BME280;11841;49.368;20.962;2022-08-19T09:38:18;95498.91;;;27.55;58.90
23339;BME280;11841;49.368;20.962;2022-08-19T09:40:45;95503.97;;;27.65;58.39
23339;BME280;11841;49.368;20.962;2022-08-19T09:43:11;95500.72;;;27.72;58.48
23339;BME280;11841;49.368;20.962;2022-08-19T09:45:39;95502.94;;;27.78;58.33
23339;BME280;11841;49.368;20.962;2022-08-19T09:48:06;95505.44;;;27.92;57.76
23339;BME280;11841;49.368;20.962;2022-08-19T09:50:37;95507.81;;;27.93;57.79
23339;BME280;11841;49.368;20.962;2022-08-19T09:53:18;95502.19;;;27.98;58.87
23339;BME280;11841;49.368;20.962;2022-08-19T09:55:45;95499.44;;;27.98;58.55
23339;BME280;11841;49.368;20.962;2022-08-19T09:58:11;95506.50;;;27.99;59.80
23339;BME280;11841;49.368;20.962;2022-08-19T10:00:38;95499.16;;;28.00;59.42
23339;BME280;11841;49.368;20.962;2022-08-19T10:03:05;95493.34;;;28.01;60.17
23339;BME280;11841;49.368;20.962;2022-08-19T10:05:33;95496.16;;;28.13;58.91
23339;BME280;11841;49.368;20.962;2022-08-19T10:08:26;95498.28;;;28.28;56.31
23339;BME280;11841;49.368;20.962;2022-08-19T10:10:54;95490.81;;;28.37;55.79
23339;BME280;11841;49.368;20.962;2022-08-19T10:13:26;95486.75;;;28.43;54.93
23339;BME280;11841;49.368;20.962;2022-08-19T10:15:56;95481.25;;;28.52;54.67
23339;BME280;11841;49.368;20.962;2022-08-19T10:18:24;95475.72;;;28.61;54.30
23339;BME280;11841;49.368;20.962;2022-08-19T10:20:51;95476.97;;;28.63;53.28
23339;BME280;11841;49.368;20.962;2022-08-19T10:23:20;95482.75;;;28.62;55.91
23339;BME280;11841;49.368;20.962;2022-08-19T10:25:48;95478.03;;;28.71;56.23
23339;BME280;11841;49.368;20.962;2022-08-19T10:28:16;95473.72;;;28.82;56.14
23339;BME280;11841;49.368;20.962;2022-08-19T10:30:44;95474.91;;;28.93;56.16
23339;BME280;11841;49.368;20.962;2022-08-19T10:33:11;95468.31;;;29.06;55.44
23339;BME280;11841;49.368;20.962;2022-08-19T10:35:38;95472.91;;;29.14;55.17
23339;BME280;11841;49.368;20.962;2022-08-19T10:38:08;95461.09;;;29.22;54.49
23339;BME280;11841;49.368;20.962;2022-08-19T10:40:35;95463.84;;;29.22;54.23
23339;BME280;11841;49.368;20.962;2022-08-19T10:43:02;95464.97;;;29.33;55.02
23339;BME280;11841;49.368;20.962;2022-08-19T10:45:28;95467.00;;;29.36;54.79
23339;BME280;11841;49.368;20.962;2022-08-19T10:47:55;95468.16;;;29.35;55.89
23339;BME280;11841;49.368;20.962;2022-08-19T10:50:22;95470.06;;;29.34;56.71
23339;BME280;11841;49.368;20.962;2022-08-19T10:53:08;95467.47;;;29.38;55.13
23339;BME280;11841;49.368;20.962;2022-08-19T10:55:35;95475.44;;;29.43;54.21
23339;BME280;11841;49.368;20.962;2022-08-19T10:58:21;95472.25;;;29.53;54.17
23339;BME280;11841;49.368;20.962;2022-08-19T11:00:53;95473.16;;;29.57;55.13
23339;BME280;11841;49.368;20.962;2022-08-19T11:03:21;95469.63;;;29.56;54.97
23339;BME280;11841;49.368;20.962;2022-08-19T11:06:02;95477.25;;;29.63;55.56
23339;BME280;11841;49.368;20.962;2022-08-19T11:08:29;95463.38;;;29.68;54.81
23339;BME280;11841;49.368;20.962;2022-08-19T11:11:00;95455.41;;;29.75;54.05
23339;BME280;11841;49.368;20.962;2022-08-19T11:13:28;95456.44;;;29.83;54.39
23339;BME280;11841;49.368;20.962;2022-08-19T11:16:04;95456.09;;;29.84;54.98
23339;BME280;11841;49.368;20.962;2022-08-19T11:18:38;95446.06;;;29.88;54.66
23339;BME280;11841;49.368;20.962;2022-08-19T11:21:18;95453.53;;;30.03;54.05
23339;BME280;11841;49.368;20.962;2022-08-19T11:23:51;95456.81;;;30.09;54.06
23339;BME280;11841;49.368;20.962;2022-08-19T11:26:20;95444.28;;;30.08;52.82
23339;BME280;11841;49.368;20.962;2022-08-19T11:28:47;95447.38;;;30.06;51.43
23339;BME280;11841;49.368;20.962;2022-08-19T11:31:18;95436.91;;;30.08;53.17
23339;BME280;11841;49.368;20.962;2022-08-19T11:33:45;95441.31;;;30.13;52.15
23339;BME280;11841;49.368;20.962;2022-08-19T11:36:13;95439.84;;;30.15;51.09
23339;BME280;11841;49.368;20.962;2022-08-19T11:38:41;95444.16;;;30.16;51.73
23339;BME280;11841;49.368;20.962;2022-08-19T11:41:08;95436.88;;;30.20;51.91
23339;BME280;11841;49.368;20.962;2022-08-19T11:43:35;95430.03;;;30.26;51.46
23339;BME280;11841;49.368;20.962;2022-08-19T11:46:07;95430.13;;;30.30;51.14
23339;BME280;11841;49.368;20.962;2022-08-19T11:48:34;95431.13;;;30.37;50.66
23339;BME280;11841;49.368;20.962;2022-08-19T11:51:05;95441.38;;;30.40;51.49
23339;BME280;11841;49.368;20.962;2022-08-19T11:53:36;95430.16;;;30.45;50.54
23339;BME280;11841;49.368;20.962;2022-08-19T11:56:05;95428.00;;;30.51;49.30
23339;BME280;11841;49.368;20.962;2022-08-19T11:58:32;95427.28;;;30.54;48.33
23339;BME280;11841;49.368;20.962;2022-08-19T12:00:58;95423.13;;;30.60;49.04
23339;BME280;11841;49.368;20.962;2022-08-19T12:03:26;95424.84;;;30.64;48.92
23339;BME280;11841;49.368;20.962;2022-08-19T12:05:52;95418.84;;;30.74;49.13
23339;BME280;11841;49.368;20.962;2022-08-19T12:08:19;95420.06;;;30.77;48.83
23339;BME280;11841;49.368;20.962;2022-08-19T12:10:46;95416.66;;;30.80;49.68
23339;BME280;11841;49.368;20.962;2022-08-19T12:13:13;95417.09;;;30.82;48.03
23339;BME280;11841;49.368;20.962;2022-08-19T12:15:45;95413.69;;;30.85;48.42
23339;BME280;11841;49.368;20.962;2022-08-19T12:18:13;95410.59;;;30.87;49.83
23339;BME280;11841;49.368;20.962;2022-08-19T12:20:41;95409.38;;;31.00;48.81
23339;BME280;11841;49.368;20.962;2022-08-19T12:23:08;95403.88;;;31.00;47.09
23339;BME280;11841;49.368;20.962;2022-08-19T12:25:44;95410.53;;;30.99;46.77
23339;BME280;11841;49.368;20.962;2022-08-19T12:28:18;95419.78;;;30.94;46.36
23339;BME280;11841;49.368;20.962;2022-08-19T12:30:45;95412.44;;;30.98;45.09
23339;BME280;11841;49.368;20.962;2022-08-19T12:33:11;95419.16;;;31.01;45.14
23339;BME280;11841;49.368;20.962;2022-08-19T12:35:41;95419.16;;;31.16;43.86
23339;BME280;11841;49.368;20.962;2022-08-19T12:38:11;95427.72;;;31.15;43.02
23339;BME280;11841;49.368;20.962;2022-08-19T12:40:38;95420.41;;;31.03;42.72
23339;BME280;11841;49.368;20.962;2022-08-19T12:43:07;95424.63;;;31.01;42.96
23339;BME280;11841;49.368;20.962;2022-08-19T12:45:34;95415.63;;;31.00;43.86
23339;BME280;11841;49.368;20.962;2022-08-19T12:48:03;95413.22;;;31.14;43.71
23339;BME280;11841;49.368;20.962;2022-08-19T12:50:50;95406.72;;;31.19;44.00
23339;BME280;11841;49.368;20.962;2022-08-19T12:53:17;95409.28;;;31.27;45.08
23339;BME280;11841;49.368;20.962;2022-08-19T12:55:43;95404.00;;;31.34;43.68
23339;BME280;11841;49.368;20.962;2022-08-19T12:58:10;95402.03;;;31.35;43.71
23339;BME280;11841;49.368;20.962;2022-08-19T13:00:39;95400.09;;;31.35;43.77
23339;BME280;11841;49.368;20.962;2022-08-19T13:03:06;95396.09;;;31.33;44.08
23339;BME280;11841;49.368;20.962;2022-08-19T13:05:33;95400.63;;;31.41;44.87
23339;BME280;11841;49.368;20.962;2022-08-19T13:08:00;95396.44;;;31.47;44.58
23339;BME280;11841;49.368;20.962;2022-08-19T13:10:30;95390.59;;;31.48;44.70
23339;BME280;11841;49.368;20.962;2022-08-19T13:13:06;95404.47;;;31.55;44.49
23339;BME280;11841;49.368;20.962;2022-08-19T13:15:35;95405.00;;;31.61;46.38
23339;BME280;11841;49.368;20.962;2022-08-19T13:18:03;95405.59;;;31.70;45.54
23339;BME280;11841;49.368;20.962;2022-08-19T13:20:30;95400.91;;;31.70;45.29
23339;BME280;11841;49.368;20.962;2022-08-19T13:22:56;95393.19;;;31.76;45.26
23339;BME280;11841;49.368;20.962;2022-08-19T13:25:24;95394.16;;;31.83;44.94